createdAt,value
2022-11-02T00:02:06.714Z,34.60
2022-11-02T00:04:51.670Z,30.80
2022-11-02T00:07:41.627Z,27.13
2022-11-02T00:10:31.710Z,33.55
2022-11-02T00:13:23.588Z,31.25
2022-11-02T00:16:10.801Z,34.60
2022-11-02T00:21:36.701Z,32.97
2022-11-02T00:24:28.872Z,37.22
2022-11-02T00:27:12.683Z,38.55
2022-11-02T00:30:05.587Z,43.65
2022-11-02T00:32:55.477Z,35.55
2022-11-02T00:35:46.633Z,38.10
2022-11-02T00:38:28.145Z,45.65
2022-11-02T00:41:09.354Z,39.88
2022-11-02T00:46:37.740Z,43.97
2022-11-02T00:49:21.582Z,43.63
2022-11-02T00:52:06.331Z,37.38
2022-11-02T00:55:00.936Z,49.65
2022-11-02T00:57:44.324Z,47.28
2022-11-02T01:00:25.697Z,51.67
2022-11-02T01:03:15.008Z,55.75
2022-11-02T01:06:05.183Z,56.55
2022-11-02T01:08:48.127Z,55.45
2022-11-02T01:11:47.448Z,46.78
2022-11-02T01:14:33.343Z,53.47
2022-11-02T01:17:18.723Z,50.97
2022-11-02T01:20:00.138Z,49.55
2022-11-02T01:25:32.500Z,60.15
2022-11-02T01:28:15.811Z,56.28
2022-11-02T01:30:59.683Z,49.63
2022-11-02T01:33:48.362Z,50.47
2022-11-02T01:36:32.632Z,58.90
2022-11-02T01:39:23.977Z,48.50
2022-11-02T01:42:05.582Z,48.72
2022-11-02T01:44:46.887Z,50.05
2022-11-02T01:47:43.696Z,52.70
2022-11-02T01:50:33.346Z,53.28
2022-11-02T01:53:13.951Z,44.22
2022-11-02T01:55:55.808Z,45.45
2022-11-02T01:58:35.619Z,46.97
2022-11-02T02:01:12.657Z,49.45
2022-11-02T02:03:59.607Z,48.20
2022-11-02T02:06:43.602Z,46.80
2022-11-02T02:09:35.038Z,48.70
2022-11-02T02:12:14.816Z,54.70
2022-11-02T02:15:05.729Z,47.58
2022-11-02T02:17:50.104Z,48.50
2022-11-02T02:21:00.641Z,44.05
2022-11-02T02:23:56.845Z,54.53
2022-11-02T02:26:58.940Z,47.70
2022-11-02T02:30:09.458Z,46.15
2022-11-02T02:33:00.008Z,46.28
2022-11-02T02:36:13.263Z,53.50
2022-11-02T02:39:06.491Z,48.20
2022-11-02T02:41:59.539Z,55.00
2022-11-02T02:45:01.682Z,61.08
2022-11-02T02:48:07.842Z,54.97
2022-11-02T02:50:52.844Z,52.50
2022-11-02T02:53:31.663Z,50.05
2022-11-02T02:56:18.290Z,46.45
2022-11-02T02:59:39.216Z,49.28
2022-11-02T03:02:40.328Z,46.38
2022-11-02T03:06:10.348Z,43.38
2022-11-02T03:09:18.242Z,54.47
2022-11-02T03:12:19.751Z,48.92
2022-11-02T03:15:06.583Z,47.70
2022-11-02T03:18:14.754Z,47.50
2022-11-02T03:21:16.927Z,51.10
2022-11-02T03:24:13.617Z,49.20
2022-11-02T03:27:18.355Z,49.90
2022-11-02T03:30:12.606Z,52.75
2022-11-02T03:33:38.607Z,54.00
2022-11-02T03:36:39.720Z,47.45
2022-11-02T03:39:20.446Z,47.60
2022-11-02T03:42:17.781Z,47.42
2022-11-02T03:45:02.582Z,47.70
2022-11-02T03:47:49.925Z,53.55
2022-11-02T03:50:40.301Z,45.35
2022-11-02T03:54:07.582Z,42.17
2022-11-02T03:57:06.208Z,45.03
2022-11-02T03:59:44.578Z,51.47
2022-11-02T04:05:07.131Z,48.67
2022-11-02T04:08:09.133Z,53.78
2022-11-02T04:11:05.566Z,53.47
2022-11-02T04:14:05.170Z,53.97
2022-11-02T04:17:18.932Z,53.72
2022-11-02T04:20:05.976Z,60.47
2022-11-02T04:22:59.730Z,52.53
2022-11-02T04:25:51.994Z,53.47
2022-11-02T04:28:47.164Z,55.08
2022-11-02T04:31:30.856Z,56.53
2022-11-02T04:34:13.147Z,68.75
2022-11-02T04:37:23.014Z,60.70
2022-11-02T04:40:17.987Z,62.47
2022-11-02T04:43:06.583Z,56.97
2022-11-02T04:45:53.515Z,59.78
2022-11-02T04:48:37.612Z,65.35
2022-11-02T04:51:31.154Z,55.17
2022-11-02T04:54:06.784Z,53.80
2022-11-02T04:56:53.075Z,58.15
2022-11-02T04:59:39.359Z,51.65
2022-11-02T05:02:28.622Z,48.25
2022-11-02T05:05:13.658Z,57.78
2022-11-02T05:08:01.910Z,53.55
2022-11-02T05:10:50.954Z,56.63
2022-11-02T05:13:40.308Z,52.45
2022-11-02T05:16:20.555Z,54.05
2022-11-02T05:19:11.165Z,65.28
2022-11-02T05:21:56.948Z,54.13
2022-11-02T05:24:42.589Z,56.60
2022-11-02T05:27:23.995Z,51.28
2022-11-02T05:30:09.582Z,55.13
2022-11-02T05:32:59.911Z,59.95
2022-11-02T05:35:50.442Z,50.75
2022-11-02T05:38:33.128Z,53.17
2022-11-02T05:41:23.521Z,51.00
2022-11-02T05:44:12.498Z,56.58
2022-11-02T05:46:57.856Z,53.63
2022-11-02T05:49:41.642Z,53.92
2022-11-02T05:52:36.054Z,61.45
2022-11-02T05:55:19.574Z,59.40
2022-11-02T05:58:10.852Z,53.80
2022-11-02T06:00:54.622Z,60.63
2022-11-02T06:03:41.710Z,60.95
2022-11-02T06:06:45.912Z,56.67
2022-11-02T06:09:26.842Z,60.15
2022-11-02T06:12:18.575Z,68.15
2022-11-02T06:14:59.620Z,54.90
2022-11-02T06:17:52.582Z,67.75
2022-11-02T06:20:36.255Z,58.15
2022-11-02T06:23:28.027Z,60.63
2022-11-02T06:26:15.902Z,63.95
2022-11-02T06:29:02.985Z,59.45
2022-11-02T06:31:52.662Z,64.43
2022-11-02T06:34:53.446Z,63.65
2022-11-02T06:37:38.154Z,61.65
2022-11-02T06:40:28.307Z,70.88
2022-11-02T06:43:18.971Z,64.18
2022-11-02T06:46:04.423Z,60.38
2022-11-02T06:48:48.783Z,64.22
2022-11-02T06:51:32.964Z,65.15
2022-11-02T06:54:15.625Z,66.72
2022-11-02T06:57:01.593Z,62.70
2022-11-02T06:59:49.985Z,66.18
2022-11-02T07:05:30.467Z,67.15
2022-11-02T07:08:14.634Z,66.82
2022-11-02T07:10:53.623Z,68.40
2022-11-02T07:13:39.270Z,63.47
2022-11-02T07:16:26.573Z,65.33
2022-11-02T07:19:16.507Z,68.13
2022-11-02T07:21:51.101Z,64.35
2022-11-02T07:24:38.440Z,64.95
2022-11-02T07:27:18.413Z,64.88
2022-11-02T07:30:04.398Z,62.90
2022-11-02T07:32:52.082Z,70.38
2022-11-02T07:35:35.966Z,64.43
2022-11-02T07:38:21.713Z,64.15
2022-11-02T07:41:10.391Z,64.05
2022-11-02T07:43:57.237Z,77.75
2022-11-02T07:46:48.902Z,62.90
2022-11-02T07:49:37.141Z,55.53
2022-11-02T07:52:18.683Z,58.63
2022-11-02T07:55:07.102Z,57.13
2022-11-02T07:57:53.973Z,59.08
2022-11-02T08:03:29.683Z,58.38
2022-11-02T08:06:15.821Z,56.97
2022-11-02T08:09:06.036Z,52.70
2022-11-02T08:11:49.045Z,49.60
2022-11-02T08:14:45.235Z,47.33
2022-11-02T08:17:35.039Z,47.67
2022-11-02T08:20:22.588Z,56.63
2022-11-02T08:23:08.171Z,54.05
2022-11-02T08:25:57.043Z,50.30
2022-11-02T08:28:45.700Z,50.70
2022-11-02T08:31:32.136Z,47.15
2022-11-02T08:34:15.908Z,48.30
2022-11-02T08:37:10.180Z,46.55
2022-11-02T08:39:56.204Z,43.58
2022-11-02T08:42:42.445Z,46.50
2022-11-02T08:45:25.155Z,48.43
2022-11-02T08:48:25.829Z,43.58
2022-11-02T08:51:12.102Z,42.05
2022-11-02T08:54:04.743Z,44.50
2022-11-02T08:56:47.642Z,41.20
2022-11-02T08:59:40.308Z,39.22
2022-11-02T09:02:23.719Z,43.90
2022-11-02T09:05:07.641Z,41.63
2022-11-02T09:07:58.702Z,39.72
2022-11-02T09:10:49.353Z,43.08
2022-11-02T09:13:31.516Z,36.33
2022-11-02T09:16:40.167Z,40.67
2022-11-02T09:19:32.615Z,42.45
2022-11-02T09:22:20.733Z,40.88
2022-11-02T09:25:06.016Z,40.90
2022-11-02T09:27:56.050Z,36.80
2022-11-02T09:30:43.073Z,34.97
2022-11-02T09:33:36.296Z,36.92
2022-11-02T09:36:27.722Z,37.90
2022-11-02T09:39:17.858Z,38.50
2022-11-02T09:42:27.239Z,33.17
2022-11-02T09:45:25.590Z,36.35
2022-11-02T09:48:59.576Z,37.03
2022-11-02T09:52:01.597Z,38.45
2022-11-02T09:54:56.811Z,32.08
2022-11-02T09:57:39.058Z,39.53
2022-11-02T10:00:45.107Z,33.45
2022-11-02T10:04:21.225Z,35.33
2022-11-02T10:07:31.943Z,36.47
2022-11-02T10:10:40.726Z,30.70
2022-11-02T10:13:45.457Z,31.80
2022-11-02T10:20:08.709Z,35.00
2022-11-02T10:23:03.374Z,31.48
2022-11-02T10:25:52.605Z,39.20
2022-11-02T10:28:50.463Z,33.15
2022-11-02T10:31:40.428Z,34.45
2022-11-02T10:34:29.278Z,29.88
2022-11-02T10:37:39.980Z,31.00
2022-11-02T10:40:40.410Z,35.47
2022-11-02T10:43:38.097Z,35.55
2022-11-02T10:46:28.675Z,32.83
2022-11-02T10:49:34.677Z,28.10
2022-11-02T10:52:23.259Z,31.83
2022-11-02T10:55:14.926Z,33.67
2022-11-02T10:58:01.219Z,29.77
2022-11-02T11:00:56.270Z,31.92
2022-11-02T11:04:11.958Z,34.60
2022-11-02T11:07:03.863Z,28.20
2022-11-02T11:10:19.370Z,29.95
2022-11-02T11:16:38.566Z,28.58
2022-11-02T11:19:47.725Z,30.60
2022-11-02T11:22:39.308Z,29.95
2022-11-02T11:25:44.604Z,30.38
2022-11-02T11:29:01.019Z,27.15
2022-11-02T11:31:44.756Z,25.23
2022-11-02T11:37:25.734Z,32.20
2022-11-02T11:40:22.911Z,28.40
2022-11-02T11:43:13.604Z,25.98
2022-11-02T11:46:11.587Z,23.10
2022-11-02T11:49:09.118Z,19.02
2022-11-02T11:51:57.116Z,20.80
2022-11-02T11:54:38.747Z,24.10
2022-11-02T11:57:52.613Z,23.08
2022-11-02T12:00:42.199Z,24.58
2022-11-02T12:03:28.552Z,20.35
2022-11-02T12:06:51.615Z,20.08
2022-11-02T12:10:06.922Z,19.95
2022-11-02T12:13:32.011Z,25.45
2022-11-02T12:16:45.375Z,21.75
2022-11-02T12:19:49.819Z,21.33
2022-11-02T12:23:07.702Z,22.73
2022-11-02T12:26:07.861Z,15.50
2022-11-02T12:29:55.065Z,18.92
2022-11-02T12:32:54.363Z,21.27
2022-11-02T12:36:25.615Z,17.25
2022-11-02T12:39:25.388Z,20.30
2022-11-02T12:42:53.560Z,18.65
2022-11-02T12:46:12.618Z,14.18
2022-11-02T12:48:58.608Z,18.05
2022-11-02T12:51:40.120Z,17.38
2022-11-02T12:54:54.554Z,14.95
2022-11-02T12:57:50.622Z,17.08
2022-11-02T13:00:29.610Z,19.08
2022-11-02T13:03:36.661Z,20.23
2022-11-02T13:06:24.214Z,18.30
2022-11-02T13:09:36.349Z,20.38
2022-11-02T13:12:26.360Z,19.67
2022-11-02T13:15:10.859Z,19.52
2022-11-02T13:18:06.276Z,24.13
2022-11-02T13:21:17.705Z,20.65
2022-11-02T13:24:09.607Z,15.55
2022-11-02T13:26:57.509Z,19.77
2022-11-02T13:29:59.629Z,17.75
2022-11-02T13:32:53.008Z,16.75
2022-11-02T13:35:51.435Z,15.93
2022-11-02T13:39:00.998Z,16.73
2022-11-02T13:42:11.230Z,12.30
2022-11-02T13:45:35.029Z,16.55
2022-11-02T13:48:30.878Z,14.70
2022-11-02T13:51:37.178Z,16.65
2022-11-02T13:54:30.556Z,13.70
2022-11-02T13:57:25.877Z,13.85
2022-11-02T14:00:32.015Z,20.77
2022-11-02T14:03:24.115Z,13.68
2022-11-02T14:06:19.673Z,13.88
2022-11-02T14:09:29.307Z,8.25
2022-11-02T14:12:53.774Z,11.85
2022-11-02T14:16:05.529Z,9.45
2022-11-02T14:18:51.433Z,10.48
2022-11-02T14:21:58.908Z,7.75
2022-11-02T14:25:13.618Z,10.32
2022-11-02T14:27:54.268Z,7.10
2022-11-02T14:30:51.612Z,10.95
2022-11-02T14:33:58.382Z,15.65
2022-11-02T14:36:59.540Z,11.27
2022-11-02T14:39:49.667Z,12.65
2022-11-02T14:42:48.594Z,15.30
2022-11-02T14:46:14.681Z,13.32
2022-11-02T14:49:15.988Z,14.40
2022-11-02T14:52:06.272Z,11.88
2022-11-02T14:54:55.406Z,9.55
2022-11-02T14:57:45.901Z,11.48
2022-11-02T15:00:36.807Z,10.07
2022-11-02T15:03:41.299Z,12.45
2022-11-02T15:07:12.270Z,13.73
2022-11-02T15:10:25.999Z,11.65
2022-11-02T15:13:42.712Z,10.63
2022-11-02T15:16:34.628Z,12.93
2022-11-02T15:19:41.201Z,9.93
2022-11-02T15:22:38.494Z,9.65
2022-11-02T15:25:37.442Z,10.30
2022-11-02T15:28:31.620Z,12.65
2022-11-02T15:31:23.124Z,11.27
2022-11-02T15:34:21.726Z,14.20
2022-11-02T15:37:07.478Z,13.57
2022-11-02T15:40:01.032Z,11.50
2022-11-02T15:42:58.855Z,13.25
2022-11-02T15:46:12.605Z,10.48
2022-11-02T15:49:24.875Z,17.95
2022-11-02T15:53:22.394Z,11.10
2022-11-02T15:56:45.606Z,16.98
2022-11-02T16:00:02.602Z,20.50
2022-11-02T16:03:07.624Z,13.57
2022-11-02T16:06:03.242Z,13.50
2022-11-02T16:08:52.608Z,19.25
2022-11-02T16:11:36.354Z,16.52
2022-11-02T16:14:21.612Z,17.30
2022-11-02T16:17:07.644Z,20.20
2022-11-02T16:19:50.492Z,19.58
2022-11-02T16:22:35.778Z,16.48
2022-11-02T16:25:39.706Z,18.70
2022-11-02T16:28:36.224Z,13.10
2022-11-02T16:31:22.267Z,12.20
2022-11-02T16:34:03.647Z,13.32
2022-11-02T16:36:53.476Z,17.58
2022-11-02T16:39:42.064Z,18.30
2022-11-02T16:43:00.519Z,24.38
2022-11-02T16:45:54.854Z,14.57
2022-11-02T16:48:40.815Z,20.17
2022-11-02T16:51:28.423Z,21.25
2022-11-02T16:54:33.519Z,25.73
2022-11-02T16:57:30.335Z,21.15
2022-11-02T17:00:23.107Z,22.70
2022-11-02T17:03:09.951Z,26.65
2022-11-02T17:05:57.149Z,26.70
2022-11-02T17:08:49.933Z,26.10
2022-11-02T17:11:37.041Z,26.85
2022-11-02T17:14:24.498Z,32.72
2022-11-02T17:17:10.934Z,29.10
2022-11-02T17:20:28.594Z,35.20
2022-11-02T17:23:14.306Z,29.70
2022-11-02T17:25:56.528Z,27.42
2022-11-02T17:28:46.494Z,25.33
2022-11-02T17:32:07.376Z,30.38
2022-11-02T17:34:57.607Z,29.45
2022-11-02T17:37:41.729Z,28.67
2022-11-02T17:40:27.718Z,30.73
2022-11-02T17:43:12.044Z,35.63
2022-11-02T17:46:00.592Z,37.40
2022-11-02T17:48:53.611Z,27.23
2022-11-02T17:51:41.002Z,29.58
2022-11-02T17:54:27.400Z,31.85
2022-11-02T17:57:20.348Z,40.55
2022-11-02T18:00:14.702Z,36.17
2022-11-02T18:03:01.270Z,39.83
2022-11-02T18:05:49.466Z,41.75
2022-11-02T18:08:53.654Z,39.15
2022-11-02T18:11:39.050Z,34.85
2022-11-02T18:14:28.010Z,33.92
2022-11-02T18:17:14.319Z,32.38
2022-11-02T18:20:01.135Z,39.92
2022-11-02T18:22:57.004Z,36.92
2022-11-02T18:26:05.863Z,42.42
2022-11-02T18:28:49.040Z,37.63
2022-11-02T18:31:41.517Z,40.42
2022-11-02T18:34:28.630Z,36.30
2022-11-02T18:37:14.044Z,38.63
2022-11-02T18:39:57.583Z,41.05
2022-11-02T18:42:46.591Z,41.03
2022-11-02T18:45:37.924Z,44.30
2022-11-02T18:48:29.441Z,36.67
2022-11-02T18:51:10.990Z,33.70
2022-11-02T18:53:46.952Z,36.88
2022-11-02T18:56:28.000Z,38.15
2022-11-02T18:59:22.230Z,37.40
2022-11-02T19:02:12.602Z,40.10
2022-11-02T19:05:04.081Z,35.42
2022-11-02T19:08:02.542Z,37.22
2022-11-02T19:10:48.603Z,35.15
2022-11-02T19:13:43.953Z,39.35
2022-11-02T19:16:27.589Z,38.40
2022-11-02T19:19:11.520Z,42.05
2022-11-02T19:24:36.598Z,46.15
2022-11-02T19:27:24.609Z,43.88
2022-11-02T19:30:18.593Z,44.83
2022-11-02T19:33:09.960Z,47.85
2022-11-02T19:36:04.800Z,50.10
2022-11-02T19:38:50.954Z,40.65
2022-11-02T19:41:38.660Z,42.30
2022-11-02T19:44:23.343Z,49.22
2022-11-02T19:47:09.605Z,49.67
2022-11-02T19:49:55.995Z,47.92
2022-11-02T19:52:49.061Z,51.58
2022-11-02T19:55:28.852Z,55.10
2022-11-02T19:58:18.110Z,54.55
2022-11-02T20:01:14.100Z,49.10
2022-11-02T20:03:58.604Z,50.55
2022-11-02T20:06:40.241Z,45.95
2022-11-02T20:09:29.650Z,46.00
2022-11-02T20:12:16.609Z,45.58
2022-11-02T20:15:00.591Z,46.80
2022-11-02T20:20:58.125Z,50.30
2022-11-02T20:23:39.994Z,46.17
2022-11-02T20:26:36.268Z,55.60
2022-11-02T20:29:18.252Z,49.88
2022-11-02T20:32:00.612Z,53.58
2022-11-02T20:34:46.478Z,59.45
2022-11-02T20:37:30.027Z,52.28
2022-11-02T20:40:16.000Z,55.75
2022-11-02T20:43:09.545Z,57.15
2022-11-02T20:45:53.680Z,50.05
2022-11-02T20:48:53.039Z,46.13
2022-11-02T20:51:31.756Z,48.17
2022-11-02T20:54:21.621Z,46.53
2022-11-02T20:57:06.602Z,42.40
2022-11-02T21:00:04.199Z,39.17
2022-11-02T21:02:39.732Z,35.45
2022-11-02T21:05:23.261Z,39.13
2022-11-02T21:08:02.496Z,34.60
2022-11-02T21:10:57.670Z,33.63
2022-11-02T21:13:56.608Z,36.58
2022-11-02T21:16:40.528Z,36.47
2022-11-02T21:19:26.583Z,32.78
2022-11-02T21:22:14.849Z,34.42
2022-11-02T21:24:58.346Z,39.83
2022-11-02T21:27:53.968Z,45.33
2022-11-02T21:30:40.748Z,70.35
2022-11-02T21:33:30.331Z,96.70
2022-11-02T21:36:09.461Z,76.97
2022-11-02T21:38:49.271Z,80.95
2022-11-02T21:41:26.164Z,63.42
2022-11-02T21:44:12.629Z,49.75
2022-11-02T21:47:02.141Z,39.30
2022-11-02T21:49:42.742Z,40.67
2022-11-02T21:52:37.872Z,32.88
2022-11-02T21:55:28.485Z,32.78
2022-11-02T21:58:09.044Z,33.17
2022-11-02T22:01:08.355Z,38.50
2022-11-02T22:03:51.993Z,34.22
2022-11-02T22:06:41.002Z,33.65
2022-11-02T22:09:18.916Z,28.70
2022-11-02T22:12:25.212Z,24.30
2022-11-02T22:15:00.043Z,26.13
2022-11-02T22:17:50.374Z,26.92
2022-11-02T22:20:42.657Z,30.10
2022-11-02T22:23:23.641Z,28.02
2022-11-02T22:26:13.598Z,24.60
2022-11-02T22:29:03.632Z,26.33
2022-11-02T22:31:53.174Z,24.88
2022-11-02T22:34:44.618Z,27.95
2022-11-02T22:37:42.166Z,28.52
2022-11-02T22:40:28.595Z,25.00
2022-11-02T22:43:16.516Z,22.55
2022-11-02T22:46:15.557Z,22.77
2022-11-02T22:48:53.598Z,22.58
2022-11-02T22:51:37.037Z,30.70
2022-11-02T22:54:19.579Z,25.92
2022-11-02T22:57:01.068Z,27.83
2022-11-02T22:59:43.976Z,38.28
2022-11-02T23:02:32.934Z,36.10
2022-11-02T23:05:19.462Z,50.90
2022-11-02T23:08:10.813Z,43.88
2022-11-02T23:11:05.188Z,28.25
2022-11-02T23:13:48.812Z,34.15
2022-11-02T23:16:35.685Z,32.63
2022-11-02T23:19:32.157Z,26.08
2022-11-02T23:22:54.586Z,23.70
2022-11-02T23:25:45.914Z,24.48
2022-11-02T23:28:39.843Z,24.42
2022-11-02T23:31:49.452Z,25.95
2022-11-02T23:34:30.509Z,26.92
2022-11-02T23:37:21.912Z,23.77
2022-11-02T23:40:06.400Z,21.80
2022-11-02T23:42:50.285Z,27.77
2022-11-02T23:45:43.545Z,28.52
2022-11-02T23:48:19.614Z,28.80
2022-11-02T23:51:15.595Z,38.70
2022-11-02T23:54:12.293Z,35.53
2022-11-02T23:56:50.507Z,40.22
2022-11-02T23:59:29.301Z,39.45
